»·PEaware :: N7025Z KRNM-KONT

N7025Z :: KRNM-KONT

FLIGHT INFORMATION

Flight Status: Arrived
Operator: Privately registered:
United States
More flights under this callsign
Pilot: Christian U. (16550)
Aircraft: PIPER PA-28 CHEROKEE ARCHER
(P28A)
More flights by this aircraft type
Origin: KRNM Ramona
United States
Destination: KONT Ontario Intl
United States
More flights between these airports :: More routes between these airports
Route: +
File this flight plan on PilotEdge
Remarks:
Altitude:
(Current/Filed)
6,500ft
Speed:
(Current/Filed)
100kts
Departed: 28-Sep-20 08:41 AM
Arrived: 28-Sep-20 09:28 AM
Distance/Time
Traveled:
70nm/0:47
Distance/Time
To Go:
Arrived

Flight Plot

Page will automatically refresh every two minutes.


Map Options




Map Legend


Flown Route
Filed Route
Departure Airport
Arrival Airport
Navaid (VOR, NDB)
Fix

Horizontal Profiles

Position Reports

Time Latitude Longitude Heading Altitude Ground
Speed
28-Sep-20 08:33 33.041075 -116.917014 178 1391ft 0kts
28-Sep-20 08:34 33.041075 -116.917014 178 1391ft 0kts
28-Sep-20 08:35 33.041055 -116.917013 178 1391ft 1kts
28-Sep-20 08:36 33.040061 -116.916600 99 1389ft 10kts
28-Sep-20 08:37 33.039446 -116.912457 99 1390ft 13kts
28-Sep-20 08:38 33.038806 -116.908098 99 1387ft 8kts
28-Sep-20 08:39 33.038412 -116.907461 177 1386ft 3kts
28-Sep-20 08:40 33.039648 -116.917047 282 1517ft 68kts
28-Sep-20 08:41 33.043918 -116.940945 292 2064ft 75kts
28-Sep-20 08:42 33.063211 -116.943825 359 2620ft 74kts
28-Sep-20 08:43 33.081410 -116.952576 315 3152ft 75kts
28-Sep-20 08:44 33.098332 -116.966806 325 3705ft 76kts
28-Sep-20 08:45 33.116803 -116.981926 325 4229ft 84kts
28-Sep-20 08:46 33.136656 -116.998469 325 4746ft 89kts
28-Sep-20 08:47 33.154344 -117.013609 325 5384ft 72kts
28-Sep-20 08:48 33.171756 -117.028912 325 5759ft 86kts
28-Sep-20 08:49 33.191521 -117.046447 325 6236ft 84kts
28-Sep-20 08:50 33.210508 -117.063762 325 6491ft 98kts
28-Sep-20 08:51 33.234066 -117.081200 333 6479ft 99kts
28-Sep-20 08:52 33.258143 -117.097694 333 6476ft 100kts
28-Sep-20 08:53 33.282651 -117.114535 333 6474ft 102kts
28-Sep-20 08:54 33.307374 -117.131607 333 6474ft 102kts
28-Sep-20 08:55 33.332110 -117.148695 333 6465ft 102kts
28-Sep-20 08:56 33.355882 -117.165287 333 6467ft 98kts
28-Sep-20 08:57 33.379244 -117.181646 333 6469ft 97kts
28-Sep-20 08:58 33.402538 -117.197974 333 6471ft 97kts
28-Sep-20 08:59 33.425825 -117.214302 333 6472ft 97kts
28-Sep-20 09:00 33.449108 -117.230633 333 6473ft 97kts
28-Sep-20 09:01 33.472376 -117.246992 333 6476ft 97kts
28-Sep-20 09:02 33.495652 -117.263397 333 6478ft 97kts
28-Sep-20 09:03 33.518906 -117.279810 333 6480ft 97kts
28-Sep-20 09:04 33.541801 -117.297017 330 6480ft 97kts
28-Sep-20 09:05 33.564461 -117.315001 330 6479ft 97kts
28-Sep-20 09:06 33.587114 -117.332954 330 6477ft 97kts
28-Sep-20 09:07 33.609856 -117.350937 330 6476ft 97kts
28-Sep-20 09:08 33.632841 -117.368100 332 6479ft 97kts
28-Sep-20 09:09 33.655607 -117.384666 332 6502ft 95kts
28-Sep-20 09:10 33.678395 -117.401199 332 6506ft 96kts
28-Sep-20 09:11 33.701146 -117.417642 332 6528ft 93kts
28-Sep-20 09:12 33.723618 -117.433837 332 6529ft 94kts
28-Sep-20 09:13 33.746126 -117.450061 332 6529ft 94kts
28-Sep-20 09:14 33.769111 -117.465524 340 6527ft 94kts
28-Sep-20 09:15 33.793278 -117.477783 340 6525ft 94kts
28-Sep-20 09:16 33.818166 -117.489397 343 6316ft 101kts
28-Sep-20 09:17 33.844927 -117.500816 343 5824ft 102kts
28-Sep-20 09:18 33.871995 -117.512093 343 5326ft 103kts
28-Sep-20 09:19 33.898960 -117.523090 343 4823ft 101kts
28-Sep-20 09:20 33.925692 -117.532291 350 4320ft 99kts
28-Sep-20 09:21 33.952802 -117.538306 350 3820ft 99kts
28-Sep-20 09:22 33.980076 -117.544049 349 3224ft 100kts
28-Sep-20 09:23 34.006407 -117.548670 350 2426ft 95kts
28-Sep-20 09:25 34.030489 -117.554124 345 1803ft 84kts
28-Sep-20 09:26 34.050812 -117.565875 298 1316ft 83kts
28-Sep-20 09:27 34.054949 -117.592786 269 931ft 72kts
28-Sep-20 09:28 34.053827 -117.603365 266 915ft 9kts
28-Sep-20 09:29 34.053832 -117.607480 270 919ft 13kts
28-Sep-20 09:30 34.053817 -117.612401 259 922ft 11kts
28-Sep-20 09:31 34.051420 -117.612885 107 916ft 3kts
28-Sep-20 09:32 34.051490 -117.612793 3 915ft 0kts

Navigation Log

Ident Type
Flight plan parsing failed, navigation log unavailable